Anderson, South Dakota
Current Conditions -  °F | °C
As of 5:53 PM on Tuesday 25 Nov 2014 (Local Time) from KHEI Reporting Station
Light Snow Light Snow  
Wind Chill: 20°   Ceiling: 2500
Heat Index: 33°   Visibility: 9mi
Dew Point: 27°   Wind: 26mph
Humidity: 78%   Direction: 320°NW
Pressure: 29.81"   Gusts: 37mph
Location:  45.2919°N, 102.298°W
Report Text: KHEI 260053Z AUTO 32023G32KT 9SM -SN SCT020 BKN025 OVC034 01/M03 A2981 RMK AO2 PK WND 31032/0044 SNB45 SLP121 P0000 T00061028
Loading
Personal Weather Stations






























Interactive Weather Map New forecast layout! Learn more

10-Day Weather Forecast

Advertisements
Track Severe Weather on mobile